sensor_id;sensor_type;location;lat;lon;timestamp;pressure;altitude;pressure_sealevel;temperature;humidity
41202;BME280;26936;50.524;8.684;2022-11-30T00:02:21;99812.69;;;6.72;100.00
41202;BME280;26936;50.524;8.684;2022-11-30T00:04:47;99816.28;;;6.73;100.00
41202;BME280;26936;50.524;8.684;2022-11-30T00:07:12;99809.13;;;6.72;100.00
41202;BME280;26936;50.524;8.684;2022-11-30T00:09:37;99805.91;;;6.73;100.00
41202;BME280;26936;50.524;8.684;2022-11-30T00:12:03;99807.47;;;6.74;100.00
41202;BME280;26936;50.524;8.684;2022-11-30T00:14:28;99811.47;;;6.77;100.00
41202;BME280;26936;50.524;8.684;2022-11-30T00:16:54;99806.63;;;6.77;100.00
41202;BME280;26936;50.524;8.684;2022-11-30T00:19:19;99809.00;;;6.79;100.00
41202;BME280;26936;50.524;8.684;2022-11-30T00:21:44;99811.78;;;6.82;100.00
41202;BME280;26936;50.524;8.684;2022-11-30T00:24:09;99813.78;;;6.82;100.00
41202;BME280;26936;50.524;8.684;2022-11-30T00:26:35;99808.19;;;6.82;100.00
41202;BME280;26936;50.524;8.684;2022-11-30T00:29:00;99810.97;;;6.82;100.00
41202;BME280;26936;50.524;8.684;2022-11-30T00:31:25;99813.78;;;6.82;100.00
41202;BME280;26936;50.524;8.684;2022-11-30T00:33:51;99807.78;;;6.83;100.00
41202;BME280;26936;50.524;8.684;2022-11-30T00:36:18;99801.38;;;6.83;100.00
41202;BME280;26936;50.524;8.684;2022-11-30T00:38:44;99807.78;;;6.83;100.00
41202;BME280;26936;50.524;8.684;2022-11-30T00:41:10;99800.16;;;6.84;100.00
41202;BME280;26936;50.524;8.684;2022-11-30T00:43:35;99805.34;;;6.85;100.00
41202;BME280;26936;50.524;8.684;2022-11-30T00:46:01;99800.13;;;6.87;100.00
41202;BME280;26936;50.524;8.684;2022-11-30T00:48:26;99801.38;;;6.83;100.00
41202;BME280;26936;50.524;8.684;2022-11-30T00:50:52;99799.78;;;6.82;100.00
41202;BME280;26936;50.524;8.684;2022-11-30T00:53:18;99798.59;;;6.83;100.00
41202;BME280;26936;50.524;8.684;2022-11-30T00:55:44;99808.13;;;6.85;100.00
41202;BME280;26936;50.524;8.684;2022-11-30T00:58:10;99809.75;;;6.86;100.00
41202;BME280;26936;50.524;8.684;2022-11-30T01:00:36;99804.50;;;6.88;100.00
41202;BME280;26936;50.524;8.684;2022-11-30T01:03:02;99802.94;;;6.87;100.00
41202;BME280;26936;50.524;8.684;2022-11-30T01:05:28;99805.72;;;6.87;100.00
41202;BME280;26936;50.524;8.684;2022-11-30T01:07:53;99805.72;;;6.87;100.00
41202;BME280;26936;50.524;8.684;2022-11-30T01:10:19;99814.50;;;6.89;100.00
41202;BME280;26936;50.524;8.684;2022-11-30T01:12:47;99808.91;;;6.89;100.00
41202;BME280;26936;50.524;8.684;2022-11-30T01:15:12;99806.53;;;6.88;100.00
41202;BME280;26936;50.524;8.684;2022-11-30T01:17:37;99799.75;;;6.85;100.00
41202;BME280;26936;50.524;8.684;2022-11-30T01:20:04;99805.34;;;6.85;100.00
41202;BME280;26936;50.524;8.684;2022-11-30T01:22:30;99810.94;;;6.85;100.00
41202;BME280;26936;50.524;8.684;2022-11-30T01:24:55;99812.16;;;6.84;100.00
41202;BME280;26936;50.524;8.684;2022-11-30T01:27:20;99812.97;;;6.85;100.00
41202;BME280;26936;50.524;8.684;2022-11-30T01:29:46;99806.97;;;6.83;100.00
41202;BME280;26936;50.524;8.684;2022-11-30T01:32:11;99811.75;;;6.86;100.00
41202;BME280;26936;50.524;8.684;2022-11-30T01:34:36;99805.75;;;6.84;100.00
41202;BME280;26936;50.524;8.684;2022-11-30T01:37:02;99799.78;;;6.82;100.00
41202;BME280;26936;50.524;8.684;2022-11-30T01:39:27;99797.78;;;6.82;100.00
41202;BME280;26936;50.524;8.684;2022-11-30T01:41:53;99808.56;;;6.84;100.00
41202;BME280;26936;50.524;8.684;2022-11-30T01:46:59;99805.00;;;6.83;100.00
41202;BME280;26936;50.524;8.684;2022-11-30T01:49:38;99805.75;;;6.84;100.00
41202;BME280;26936;50.524;8.684;2022-11-30T01:52:27;99808.19;;;6.82;100.00
41202;BME280;26936;50.524;8.684;2022-11-30T01:55:01;99788.66;;;6.78;100.00
41202;BME280;26936;50.524;8.684;2022-11-30T01:57:32;99795.03;;;6.79;100.00
41202;BME280;26936;50.524;8.684;2022-11-30T02:00:00;99796.66;;;6.76;100.00
41202;BME280;26936;50.524;8.684;2022-11-30T02:05:25;99795.13;;;6.72;100.00
41202;BME280;26936;50.524;8.684;2022-11-30T02:07:51;99796.28;;;6.74;100.00
41202;BME280;26936;50.524;8.684;2022-11-30T02:10:22;99794.28;;;6.75;100.00
41202;BME280;26936;50.524;8.684;2022-11-30T02:15:28;99800.34;;;6.70;100.00
41202;BME280;26936;50.524;8.684;2022-11-30T02:18:06;99800.34;;;6.70;100.00
41202;BME280;26936;50.524;8.684;2022-11-30T02:20:54;99807.53;;;6.67;100.00
41202;BME280;26936;50.524;8.684;2022-11-30T02:29:36;99806.34;;;6.68;100.00
41202;BME280;26936;50.524;8.684;2022-11-30T02:32:11;99809.94;;;6.69;100.00
41202;BME280;26936;50.524;8.684;2022-11-30T02:34:40;99808.34;;;6.68;100.00
41202;BME280;26936;50.524;8.684;2022-11-30T02:37:08;99803.53;;;6.72;100.00
41202;BME280;26936;50.524;8.684;2022-11-30T02:39:33;99803.13;;;6.70;100.00
41202;BME280;26936;50.524;8.684;2022-11-30T02:41:59;99807.94;;;6.69;100.00
41202;BME280;26936;50.524;8.684;2022-11-30T02:44:25;99804.75;;;6.67;100.00
41202;BME280;26936;50.524;8.684;2022-11-30T02:51:53;99810.00;;;6.65;100.00
41202;BME280;26936;50.524;8.684;2022-11-30T02:54:19;99807.53;;;6.67;100.00
41202;BME280;26936;50.524;8.684;2022-11-30T02:56:44;99805.94;;;6.70;100.00
41202;BME280;26936;50.524;8.684;2022-11-30T02:59:10;99808.72;;;6.70;100.00
41202;BME280;26936;50.524;8.684;2022-11-30T03:01:36;99820.72;;;6.70;100.00
41202;BME280;26936;50.524;8.684;2022-11-30T03:04:01;99814.34;;;6.70;100.00
41202;BME280;26936;50.524;8.684;2022-11-30T03:06:26;99811.13;;;6.71;100.00
41202;BME280;26936;50.524;8.684;2022-11-30T03:08:52;99815.50;;;6.72;100.00
41202;BME280;26936;50.524;8.684;2022-11-30T03:11:17;99813.06;;;6.74;100.00
41202;BME280;26936;50.524;8.684;2022-11-30T03:13:42;99818.25;;;6.76;100.00
41202;BME280;26936;50.524;8.684;2022-11-30T03:16:10;99818.25;;;6.76;100.00
41202;BME280;26936;50.524;8.684;2022-11-30T03:18:36;99816.69;;;6.75;100.00
41202;BME280;26936;50.524;8.684;2022-11-30T03:21:04;99815.44;;;6.76;100.00
41202;BME280;26936;50.524;8.684;2022-11-30T03:23:30;99819.47;;;6.75;100.00
41202;BME280;26936;50.524;8.684;2022-11-30T03:25:57;99821.47;;;6.74;100.00
41202;BME280;26936;50.524;8.684;2022-11-30T03:28:23;99822.66;;;6.77;100.00
41202;BME280;26936;50.524;8.684;2022-11-30T03:30:48;99823.47;;;6.74;100.00
41202;BME280;26936;50.524;8.684;2022-11-30T03:33:14;99825.06;;;6.75;100.00
41202;BME280;26936;50.524;8.684;2022-11-30T03:35:39;99824.28;;;6.74;100.00
41202;BME280;26936;50.524;8.684;2022-11-30T03:38:04;99823.47;;;6.74;100.00
41202;BME280;26936;50.524;8.684;2022-11-30T03:40:29;99821.06;;;6.76;100.00
41202;BME280;26936;50.524;8.684;2022-11-30T03:42:55;99823.84;;;6.76;100.00
41202;BME280;26936;50.524;8.684;2022-11-30T03:45:20;99832.25;;;6.76;100.00
41202;BME280;26936;50.524;8.684;2022-11-30T03:47:45;99830.25;;;6.76;100.00
41202;BME280;26936;50.524;8.684;2022-11-30T03:50:11;99832.63;;;6.78;100.00
41202;BME280;26936;50.524;8.684;2022-11-30T03:52:36;99829.84;;;6.78;100.00
41202;BME280;26936;50.524;8.684;2022-11-30T03:55:01;99834.63;;;6.77;100.00
41202;BME280;26936;50.524;8.684;2022-11-30T03:57:27;99837.41;;;6.81;100.00
41202;BME280;26936;50.524;8.684;2022-11-30T03:59:52;99832.19;;;6.83;100.00
41202;BME280;26936;50.524;8.684;2022-11-30T04:02:17;99828.59;;;6.82;100.00
41202;BME280;26936;50.524;8.684;2022-11-30T04:04:42;99826.63;;;6.79;100.00
41202;BME280;26936;50.524;8.684;2022-11-30T04:07:08;99827.00;;;6.81;100.00
41202;BME280;26936;50.524;8.684;2022-11-30T04:09:33;99827.00;;;6.81;100.00
41202;BME280;26936;50.524;8.684;2022-11-30T04:11:58;99827.00;;;6.81;100.00
41202;BME280;26936;50.524;8.684;2022-11-30T04:14:23;99829.00;;;6.81;100.00
41202;BME280;26936;50.524;8.684;2022-11-30T04:16:49;99824.63;;;6.80;100.00
41202;BME280;26936;50.524;8.684;2022-11-30T04:19:14;99828.63;;;6.79;100.00
41202;BME280;26936;50.524;8.684;2022-11-30T04:21:39;99829.00;;;6.81;100.00
41202;BME280;26936;50.524;8.684;2022-11-30T04:24:05;99831.38;;;6.82;100.00
41202;BME280;26936;50.524;8.684;2022-11-30T04:26:30;99827.00;;;6.81;100.00
41202;BME280;26936;50.524;8.684;2022-11-30T04:28:56;99835.81;;;6.80;100.00
41202;BME280;26936;50.524;8.684;2022-11-30T04:31:21;99834.97;;;6.83;100.00
41202;BME280;26936;50.524;8.684;2022-11-30T04:33:46;99827.78;;;6.82;100.00
41202;BME280;26936;50.524;8.684;2022-11-30T04:36:16;99833.00;;;6.83;100.00
41202;BME280;26936;50.524;8.684;2022-11-30T04:38:42;99829.38;;;6.83;100.00
41202;BME280;26936;50.524;8.684;2022-11-30T04:41:08;99838.53;;;6.87;100.00
41202;BME280;26936;50.524;8.684;2022-11-30T04:43:33;99836.94;;;6.86;100.00
41202;BME280;26936;50.524;8.684;2022-11-30T04:45:58;99839.31;;;6.87;100.00
41202;BME280;26936;50.524;8.684;2022-11-30T04:48:24;99830.50;;;6.89;100.00
41202;BME280;26936;50.524;8.684;2022-11-30T04:50:49;99832.50;;;6.88;100.00
41202;BME280;26936;50.524;8.684;2022-11-30T04:53:14;99840.13;;;6.88;100.00
41202;BME280;26936;50.524;8.684;2022-11-30T04:55:39;99836.91;;;6.89;100.00
41202;BME280;26936;50.524;8.684;2022-11-30T04:58:05;99824.09;;;6.88;100.00
41202;BME280;26936;50.524;8.684;2022-11-30T05:00:32;99833.31;;;6.89;100.00
41202;BME280;26936;50.524;8.684;2022-11-30T05:02:58;99832.50;;;6.88;100.00
41202;BME280;26936;50.524;8.684;2022-11-30T05:05:23;99828.94;;;6.88;100.00
41202;BME280;26936;50.524;8.684;2022-11-30T05:07:53;99836.09;;;6.89;100.00
41202;BME280;26936;50.524;8.684;2022-11-30T05:10:18;99834.94;;;6.86;100.00
41202;BME280;26936;50.524;8.684;2022-11-30T05:12:43;99827.72;;;6.89;100.00
41202;BME280;26936;50.524;8.684;2022-11-30T05:15:09;99829.25;;;6.93;100.00
41202;BME280;26936;50.524;8.684;2022-11-30T05:17:34;99831.69;;;6.92;100.00
41202;BME280;26936;50.524;8.684;2022-11-30T05:20:00;99836.88;;;6.93;100.00
41202;BME280;26936;50.524;8.684;2022-11-30T05:22:25;99835.25;;;6.92;100.00
41202;BME280;26936;50.524;8.684;2022-11-30T05:24:50;99834.09;;;6.89;100.00
41202;BME280;26936;50.524;8.684;2022-11-30T05:27:15;99838.06;;;6.92;100.00
41202;BME280;26936;50.524;8.684;2022-11-30T05:29:41;99830.47;;;6.93;100.00
41202;BME280;26936;50.524;8.684;2022-11-30T05:32:06;99835.25;;;6.92;100.00
41202;BME280;26936;50.524;8.684;2022-11-30T05:34:31;99848.06;;;6.93;100.00
41202;BME280;26936;50.524;8.684;2022-11-30T05:36:57;99845.28;;;6.93;100.00
41202;BME280;26936;50.524;8.684;2022-11-30T05:39:22;99850.88;;;6.93;100.00
41202;BME280;26936;50.524;8.684;2022-11-30T05:41:47;99854.03;;;6.95;100.00
41202;BME280;26936;50.524;8.684;2022-11-30T05:44:12;99852.03;;;6.96;100.00
41202;BME280;26936;50.524;8.684;2022-11-30T05:46:39;99848.44;;;6.95;100.00
41202;BME280;26936;50.524;8.684;2022-11-30T05:49:04;99852.84;;;6.96;100.00
41202;BME280;26936;50.524;8.684;2022-11-30T05:51:29;99842.06;;;6.95;100.00
41202;BME280;26936;50.524;8.684;2022-11-30T05:53:55;99843.63;;;6.96;100.00
41202;BME280;26936;50.524;8.684;2022-11-30T05:56:20;99848.03;;;6.97;100.00
41202;BME280;26936;50.524;8.684;2022-11-30T05:58:46;99853.63;;;6.97;100.00
41202;BME280;26936;50.524;8.684;2022-11-30T06:01:41;99854.81;;;6.96;100.00
41202;BME280;26936;50.524;8.684;2022-11-30T06:04:07;99853.66;;;6.93;100.00
41202;BME280;26936;50.524;8.684;2022-11-30T06:06:32;99849.22;;;6.96;100.00
41202;BME280;26936;50.524;8.684;2022-11-30T06:08:57;99859.59;;;6.99;100.00
41202;BME280;26936;50.524;8.684;2022-11-30T06:11:23;99851.19;;;6.99;100.00
41202;BME280;26936;50.524;8.684;2022-11-30T06:13:48;99855.22;;;6.98;100.00
41202;BME280;26936;50.524;8.684;2022-11-30T06:16:13;99860.00;;;6.97;100.00
41202;BME280;26936;50.524;8.684;2022-11-30T06:18:39;99860.44;;;6.96;100.00
41202;BME280;26936;50.524;8.684;2022-11-30T06:21:07;99857.63;;;6.96;100.00
41202;BME280;26936;50.524;8.684;2022-11-30T06:23:34;99863.22;;;6.96;100.00
41202;BME280;26936;50.524;8.684;2022-11-30T06:26:04;99863.22;;;6.96;100.00
41202;BME280;26936;50.524;8.684;2022-11-30T06:28:29;99867.63;;;6.97;100.00
41202;BME280;26936;50.524;8.684;2022-11-30T06:30:59;99861.22;;;6.96;100.00
41202;BME280;26936;50.524;8.684;2022-11-30T06:33:24;99864.84;;;6.97;100.00
41202;BME280;26936;50.524;8.684;2022-11-30T06:35:50;99868.44;;;6.93;100.00
41202;BME280;26936;50.524;8.684;2022-11-30T06:38:15;99874.44;;;6.96;100.00
41202;BME280;26936;50.524;8.684;2022-11-30T06:40:40;99877.22;;;6.96;100.00
41202;BME280;26936;50.524;8.684;2022-11-30T06:43:06;99881.63;;;6.97;100.00
41202;BME280;26936;50.524;8.684;2022-11-30T06:45:31;99883.22;;;6.98;100.00
41202;BME280;26936;50.524;8.684;2022-11-30T06:47:57;99877.63;;;6.98;100.00
41202;BME280;26936;50.524;8.684;2022-11-30T06:50:23;99881.56;;;7.00;100.00
41202;BME280;26936;50.524;8.684;2022-11-30T06:52:49;99881.16;;;7.02;100.00
41202;BME280;26936;50.524;8.684;2022-11-30T06:55:14;99883.97;;;7.02;100.00
41202;BME280;26936;50.524;8.684;2022-11-30T06:57:39;99884.38;;;7.00;100.00
41202;BME280;26936;50.524;8.684;2022-11-30T07:00:05;99879.56;;;7.01;100.00
41202;BME280;26936;50.524;8.684;2022-11-30T07:02:31;99880.00;;;6.99;100.00
41202;BME280;26936;50.524;8.684;2022-11-30T07:04:56;99890.78;;;7.01;100.00
41202;BME280;26936;50.524;8.684;2022-11-30T07:07:21;99882.00;;;6.99;100.00
41202;BME280;26936;50.524;8.684;2022-11-30T07:09:48;99885.19;;;7.01;100.00
41202;BME280;26936;50.524;8.684;2022-11-30T07:12:13;99885.19;;;7.01;100.00
41202;BME280;26936;50.524;8.684;2022-11-30T07:14:39;99888.38;;;7.03;100.00
41202;BME280;26936;50.524;8.684;2022-11-30T07:17:04;99891.97;;;7.03;100.00
41202;BME280;26936;50.524;8.684;2022-11-30T07:19:30;99886.72;;;7.05;100.00
41202;BME280;26936;50.524;8.684;2022-11-30T07:21:56;99894.28;;;7.08;100.00
41202;BME280;26936;50.524;8.684;2022-11-30T07:24:21;99893.09;;;7.09;100.00
41202;BME280;26936;50.524;8.684;2022-11-30T07:27:05;99883.84;;;7.12;100.00
41202;BME280;26936;50.524;8.684;2022-11-30T07:29:30;99896.22;;;7.15;100.00
41202;BME280;26936;50.524;8.684;2022-11-30T07:31:56;99895.34;;;7.21;100.00
41202;BME280;26936;50.524;8.684;2022-11-30T07:34:21;99897.75;;;7.23;100.00
41202;BME280;26936;50.524;8.684;2022-11-30T07:36:47;99894.47;;;7.28;100.00
41202;BME280;26936;50.524;8.684;2022-11-30T07:39:13;99900.44;;;7.30;100.00
41202;BME280;26936;50.524;8.684;2022-11-30T07:41:39;99905.22;;;7.33;100.00
41202;BME280;26936;50.524;8.684;2022-11-30T07:44:06;99907.25;;;7.32;100.00
41202;BME280;26936;50.524;8.684;2022-11-30T07:46:33;99898.38;;;7.37;100.00
41202;BME280;26936;50.524;8.684;2022-11-30T07:49:03;99907.13;;;7.39;100.00
41202;BME280;26936;50.524;8.684;2022-11-30T07:51:29;99902.72;;;7.42;100.00
41202;BME280;26936;50.524;8.684;2022-11-30T07:53:55;99899.84;;;7.49;100.00
41202;BME280;26936;50.524;8.684;2022-11-30T07:56:20;99900.13;;;7.54;100.00
41202;BME280;26936;50.524;8.684;2022-11-30T07:58:47;99902.91;;;7.58;100.00
41202;BME280;26936;50.524;8.684;2022-11-30T08:01:15;99900.78;;;7.65;100.00
41202;BME280;26936;50.524;8.684;2022-11-30T08:03:41;99897.56;;;7.67;100.00
41202;BME280;26936;50.524;8.684;2022-11-30T08:06:12;99903.56;;;7.69;100.00
41202;BME280;26936;50.524;8.684;2022-11-30T08:08:40;99906.34;;;7.69;100.00
41202;BME280;26936;50.524;8.684;2022-11-30T08:11:07;99902.69;;;7.72;100.00
41202;BME280;26936;50.524;8.684;2022-11-30T08:13:33;99910.69;;;7.73;100.00
41202;BME280;26936;50.524;8.684;2022-11-30T08:16:06;99908.31;;;7.72;100.00
41202;BME280;26936;50.524;8.684;2022-11-30T08:18:32;99901.94;;;7.71;100.00
41202;BME280;26936;50.524;8.684;2022-11-30T08:20:58;99904.72;;;7.71;100.00
41202;BME280;26936;50.524;8.684;2022-11-30T08:23:27;99912.72;;;7.73;100.00
41202;BME280;26936;50.524;8.684;2022-11-30T08:25:52;99909.13;;;7.72;100.00
41202;BME280;26936;50.524;8.684;2022-11-30T08:28:17;99916.72;;;7.72;100.00
41202;BME280;26936;50.524;8.684;2022-11-30T08:30:43;99917.91;;;7.74;100.00
41202;BME280;26936;50.524;8.684;2022-11-30T08:33:08;99912.69;;;7.76;100.00
41202;BME280;26936;50.524;8.684;2022-11-30T08:35:33;99911.03;;;7.79;100.00
41202;BME280;26936;50.524;8.684;2022-11-30T08:37:59;99911.78;;;7.83;100.00
41202;BME280;26936;50.524;8.684;2022-11-30T08:40:24;99918.13;;;7.87;100.00
41202;BME280;26936;50.524;8.684;2022-11-30T08:42:49;99916.03;;;7.94;100.00
41202;BME280;26936;50.524;8.684;2022-11-30T08:45:14;99912.72;;;7.99;100.00
41202;BME280;26936;50.524;8.684;2022-11-30T08:47:40;99915.19;;;7.97;100.00
41202;BME280;26936;50.524;8.684;2022-11-30T08:50:05;99907.88;;;8.03;100.00
41202;BME280;26936;50.524;8.684;2022-11-30T08:52:30;99911.34;;;8.11;100.00
41202;BME280;26936;50.524;8.684;2022-11-30T08:54:56;99916.06;;;8.17;100.00
41202;BME280;26936;50.524;8.684;2022-11-30T08:57:22;99918.41;;;8.22;100.00
41202;BME280;26936;50.524;8.684;2022-11-30T08:59:47;99918.38;;;8.26;100.00
41202;BME280;26936;50.524;8.684;2022-11-30T09:02:14;99918.31;;;8.30;100.00
41202;BME280;26936;50.524;8.684;2022-11-30T09:04:41;99926.78;;;8.26;100.00
41202;BME280;26936;50.524;8.684;2022-11-30T09:07:07;99918.66;;;8.35;100.00
41202;BME280;26936;50.524;8.684;2022-11-30T09:09:34;99929.78;;;8.39;100.00
41202;BME280;26936;50.524;8.684;2022-11-30T09:11:59;99931.78;;;8.42;100.00
41202;BME280;26936;50.524;8.684;2022-11-30T09:14:24;99935.78;;;8.41;100.00
41202;BME280;26936;50.524;8.684;2022-11-30T09:16:49;99932.97;;;8.41;100.00
41202;BME280;26936;50.524;8.684;2022-11-30T09:19:15;99941.81;;;8.39;100.00
41202;BME280;26936;50.524;8.684;2022-11-30T09:21:40;99939.81;;;8.40;100.00
41202;BME280;26936;50.524;8.684;2022-11-30T09:24:06;99936.16;;;8.43;100.00
41202;BME280;26936;50.524;8.684;2022-11-30T09:26:31;99931.34;;;8.43;100.00
41202;BME280;26936;50.524;8.684;2022-11-30T09:28:56;99938.91;;;8.46;100.00
41202;BME280;26936;50.524;8.684;2022-11-30T09:31:23;99937.69;;;8.47;100.00
41202;BME280;26936;50.524;8.684;2022-11-30T09:33:50;99940.50;;;8.47;100.00
41202;BME280;26936;50.524;8.684;2022-11-30T09:36:18;99940.06;;;8.49;100.00
41202;BME280;26936;50.524;8.684;2022-11-30T09:38:44;99935.63;;;8.51;100.00
41202;BME280;26936;50.524;8.684;2022-11-30T09:46:47;99939.72;;;8.47;100.00
41202;BME280;26936;50.524;8.684;2022-11-30T09:49:26;99934.44;;;8.49;100.00
41202;BME280;26936;50.524;8.684;2022-11-30T09:51:55;99939.22;;;8.52;100.00
41202;BME280;26936;50.524;8.684;2022-11-30T09:54:29;99937.53;;;8.58;100.00
41202;BME280;26936;50.524;8.684;2022-11-30T09:57:02;99935.81;;;8.64;100.00
41202;BME280;26936;50.524;8.684;2022-11-30T09:59:32;99932.94;;;8.67;100.00
41202;BME280;26936;50.524;8.684;2022-11-30T10:02:10;99932.09;;;8.70;100.00
41202;BME280;26936;50.524;8.684;2022-11-30T10:04:38;99937.75;;;8.67;100.00
41202;BME280;26936;50.524;8.684;2022-11-30T10:15:52;99943.00;;;8.65;100.00
41202;BME280;26936;50.524;8.684;2022-11-30T10:21:01;99949.41;;;8.65;100.00
41202;BME280;26936;50.524;8.684;2022-11-30T10:23:48;99949.03;;;8.63;100.00
41202;BME280;26936;50.524;8.684;2022-11-30T10:26:28;99948.34;;;8.59;100.00
41202;BME280;26936;50.524;8.684;2022-11-30T10:29:24;99944.00;;;8.55;100.00
41202;BME280;26936;50.524;8.684;2022-11-30T10:31:47;99947.97;;;8.57;100.00
41202;BME280;26936;50.524;8.684;2022-11-30T10:34:24;99947.09;;;8.60;100.00
41202;BME280;26936;50.524;8.684;2022-11-30T10:39:42;99942.66;;;8.63;100.00
41202;BME280;26936;50.524;8.684;2022-11-30T10:42:29;99940.63;;;8.63;100.00
41202;BME280;26936;50.524;8.684;2022-11-30T10:44:58;99937.00;;;8.66;100.00
41202;BME280;26936;50.524;8.684;2022-11-30T10:47:29;99928.56;;;8.66;100.00
41202;BME280;26936;50.524;8.684;2022-11-30T10:50:02;99928.91;;;8.68;100.00
41202;BME280;26936;50.524;8.684;2022-11-30T10:52:30;99930.84;;;8.71;100.00
41202;BME280;26936;50.524;8.684;2022-11-30T10:54:59;99928.06;;;8.71;100.00
41202;BME280;26936;50.524;8.684;2022-11-30T10:57:28;99930.03;;;8.74;100.00
41202;BME280;26936;50.524;8.684;2022-11-30T10:59:57;99933.19;;;8.76;100.00
41202;BME280;26936;50.524;8.684;2022-11-30T11:05:22;99923.56;;;8.77;100.00
41202;BME280;26936;50.524;8.684;2022-11-30T11:10:30;99916.28;;;8.80;100.00
41202;BME280;26936;50.524;8.684;2022-11-30T11:12:57;99927.50;;;8.80;100.00
41202;BME280;26936;50.524;8.684;2022-11-30T11:15:26;99932.34;;;8.79;100.00
41202;BME280;26936;50.524;8.684;2022-11-30T11:17:53;99923.56;;;8.77;100.00
41202;BME280;26936;50.524;8.684;2022-11-30T11:20:33;99924.75;;;8.76;100.00
41202;BME280;26936;50.524;8.684;2022-11-30T11:22:59;99928.44;;;8.73;100.00
41202;BME280;26936;50.524;8.684;2022-11-30T11:25:35;99924.03;;;8.72;100.00
41202;BME280;26936;50.524;8.684;2022-11-30T11:28:10;99923.25;;;8.72;100.00
41202;BME280;26936;50.524;8.684;2022-11-30T11:30:37;99931.66;;;8.72;100.00
41202;BME280;26936;50.524;8.684;2022-11-30T11:35:42;99920.44;;;8.72;100.00
41202;BME280;26936;50.524;8.684;2022-11-30T11:38:27;99915.66;;;8.69;100.00
41202;BME280;26936;50.524;8.684;2022-11-30T11:43:20;99927.34;;;8.67;100.00
41202;BME280;26936;50.524;8.684;2022-11-30T11:45:50;99922.09;;;8.69;100.00
41202;BME280;26936;50.524;8.684;2022-11-30T11:50:59;99925.34;;;8.68;100.00
41202;BME280;26936;50.524;8.684;2022-11-30T11:53:46;99917.63;;;8.72;100.00
41202;BME280;26936;50.524;8.684;2022-11-30T11:56:21;99916.81;;;8.71;100.00
41202;BME280;26936;50.524;8.684;2022-11-30T11:59:27;99912.38;;;8.74;100.00
41202;BME280;26936;50.524;8.684;2022-11-30T12:04:44;99918.31;;;8.79;100.00
41202;BME280;26936;50.524;8.684;2022-11-30T12:07:20;99911.47;;;8.80;100.00
41202;BME280;26936;50.524;8.684;2022-11-30T12:09:56;99915.91;;;8.78;100.00
41202;BME280;26936;50.524;8.684;2022-11-30T12:12:26;99920.31;;;8.79;100.00
41202;BME280;26936;50.524;8.684;2022-11-30T12:14:52;99924.69;;;8.80;100.00
41202;BME280;26936;50.524;8.684;2022-11-30T12:20:15;99919.47;;;8.82;100.00
41202;BME280;26936;50.524;8.684;2022-11-30T12:25:50;99915.34;;;8.86;100.00
41202;BME280;26936;50.524;8.684;2022-11-30T12:28:48;99921.34;;;8.88;100.00
41202;BME280;26936;50.524;8.684;2022-11-30T12:31:18;99920.09;;;8.89;100.00
41202;BME280;26936;50.524;8.684;2022-11-30T12:34:13;99910.53;;;8.87;100.00
41202;BME280;26936;50.524;8.684;2022-11-30T12:37:19;99906.56;;;8.84;100.00
41202;BME280;26936;50.524;8.684;2022-11-30T12:40:14;99912.13;;;8.88;100.00
41202;BME280;26936;50.524;8.684;2022-11-30T12:43:03;99920.19;;;8.86;100.00
41202;BME280;26936;50.524;8.684;2022-11-30T12:45:34;99913.78;;;8.85;100.00
41202;BME280;26936;50.524;8.684;2022-11-30T12:56:43;99919.78;;;8.87;100.00
41202;BME280;26936;50.524;8.684;2022-11-30T12:59:29;99921.34;;;8.88;100.00
41202;BME280;26936;50.524;8.684;2022-11-30T13:05:12;99919.34;;;8.89;100.00
41202;BME280;26936;50.524;8.684;2022-11-30T13:07:57;99916.53;;;8.89;100.00
41202;BME280;26936;50.524;8.684;2022-11-30T13:10:34;99915.72;;;8.88;100.00
41202;BME280;26936;50.524;8.684;2022-11-30T13:13:05;99912.50;;;8.90;100.00
41202;BME280;26936;50.524;8.684;2022-11-30T13:15:33;99917.72;;;8.88;100.00
41202;BME280;26936;50.524;8.684;2022-11-30T13:17:59;99918.91;;;8.90;100.00
41202;BME280;26936;50.524;8.684;2022-11-30T13:26:35;99916.88;;;8.91;100.00
41202;BME280;26936;50.524;8.684;2022-11-30T13:32:13;99920.06;;;8.93;100.00
41202;BME280;26936;50.524;8.684;2022-11-30T13:34:39;99914.81;;;8.95;100.00
41202;BME280;26936;50.524;8.684;2022-11-30T13:37:16;99910.00;;;8.95;100.00
41202;BME280;26936;50.524;8.684;2022-11-30T13:39:46;99922.00;;;8.96;100.00
41202;BME280;26936;50.524;8.684;2022-11-30T13:44:43;99913.94;;;8.98;100.00
41202;BME280;26936;50.524;8.684;2022-11-30T13:47:28;99915.13;;;9.00;100.00
41202;BME280;26936;50.524;8.684;2022-11-30T13:50:05;99911.56;;;8.96;100.00
41202;BME280;26936;50.524;8.684;2022-11-30T14:02:54;99911.25;;;8.91;100.00
41202;BME280;26936;50.524;8.684;2022-11-30T14:05:24;99906.44;;;8.91;100.00
41202;BME280;26936;50.524;8.684;2022-11-30T14:10:34;99912.91;;;8.88;100.00
41202;BME280;26936;50.524;8.684;2022-11-30T14:20:41;99915.34;;;8.86;100.00
41202;BME280;26936;50.524;8.684;2022-11-30T14:23:13;99923.84;;;8.83;100.00
41202;BME280;26936;50.524;8.684;2022-11-30T14:25:45;99918.72;;;8.78;100.00
41202;BME280;26936;50.524;8.684;2022-11-30T14:28:14;99922.31;;;8.78;100.00
41202;BME280;26936;50.524;8.684;2022-11-30T14:30:42;99922.44;;;8.71;100.00
41202;BME280;26936;50.524;8.684;2022-11-30T14:33:24;99929.72;;;8.69;100.00
41202;BME280;26936;50.524;8.684;2022-11-30T14:35:55;99928.13;;;8.68;100.00
41202;BME280;26936;50.524;8.684;2022-11-30T14:38:27;99927.34;;;8.67;100.00
41202;BME280;26936;50.524;8.684;2022-11-30T14:40:55;99931.47;;;8.59;100.00
41202;BME280;26936;50.524;8.684;2022-11-30T14:43:20;99935.09;;;8.60;100.00
41202;BME280;26936;50.524;8.684;2022-11-30T14:46:03;99942.72;;;8.59;100.00
41202;BME280;26936;50.524;8.684;2022-11-30T14:48:30;99943.91;;;8.58;100.00
41202;BME280;26936;50.524;8.684;2022-11-30T14:51:00;99943.19;;;8.54;100.00
41202;BME280;26936;50.524;8.684;2022-11-30T14:53:55;99948.88;;;8.51;100.00